Terminal Aerodrome Forecast
Issued by NWS Charleston, WV

Current Version | Previous Version | Text Only | Print | Product List | Glossary Off
Versions: 1 2 3 4 5 6 7 8 9 10 11 12 13 14 15 16 17 18 19 20 21 22 23 24 25 26

000
FTUS41 KRLX 201100
TAFPKB
TAF
KPKB 201126Z 2012/2112 VRB03KT 6SM -SHRA BR SCT012 OVC025
     FM201300 18004KT P6SM OVC035
     FM201700 20006KT P6SM VCTS BKN040CB
     FM210000 00000KT P6SM SCT050
     FM210100 00000KT P6SM BKN080
     FM210200 00000KT 6SM BR BKN080
     FM210400 00000KT 3SM BR BKN030
     FM210600 00000KT 1/4SM FG VV001
      AMD NOT SKED=

USA.gov is the U.S. government's official web portal to all federal, state and local government web resources and services.